sensor_id;sensor_type;location;lat;lon;timestamp;P1;durP1;ratioP1;P2;durP2;ratioP2
57826;SDS011;43656;57.746;11.780;2023-08-21T00:00:10;25.25;;;7.50;;
57826;SDS011;43656;57.746;11.780;2023-08-21T00:02:38;27.77;;;8.07;;
57826;SDS011;43656;57.746;11.780;2023-08-21T00:05:03;28.35;;;7.60;;
57826;SDS011;43656;57.746;11.780;2023-08-21T00:07:29;30.55;;;8.38;;
57826;SDS011;43656;57.746;11.780;2023-08-21T00:09:54;24.00;;;6.97;;
57826;SDS011;43656;57.746;11.780;2023-08-21T00:12:20;29.65;;;8.00;;
57826;SDS011;43656;57.746;11.780;2023-08-21T00:14:45;27.50;;;7.57;;
57826;SDS011;43656;57.746;11.780;2023-08-21T00:17:11;27.35;;;7.60;;
57826;SDS011;43656;57.746;11.780;2023-08-21T00:19:36;27.05;;;7.35;;
57826;SDS011;43656;57.746;11.780;2023-08-21T00:22:02;26.48;;;6.57;;
57826;SDS011;43656;57.746;11.780;2023-08-21T00:24:27;30.17;;;6.97;;
57826;SDS011;43656;57.746;11.780;2023-08-21T00:26:52;33.20;;;7.30;;
57826;SDS011;43656;57.746;11.780;2023-08-21T00:29:18;25.45;;;6.45;;
57826;SDS011;43656;57.746;11.780;2023-08-21T00:31:43;21.45;;;6.28;;
57826;SDS011;43656;57.746;11.780;2023-08-21T00:34:09;25.40;;;6.97;;
57826;SDS011;43656;57.746;11.780;2023-08-21T00:36:34;28.92;;;7.35;;
57826;SDS011;43656;57.746;11.780;2023-08-21T00:39:00;25.83;;;6.80;;
57826;SDS011;43656;57.746;11.780;2023-08-21T00:41:25;23.85;;;6.63;;
57826;SDS011;43656;57.746;11.780;2023-08-21T00:43:50;31.42;;;7.75;;
57826;SDS011;43656;57.746;11.780;2023-08-21T00:46:16;25.00;;;7.50;;
57826;SDS011;43656;57.746;11.780;2023-08-21T00:48:42;30.70;;;7.38;;
57826;SDS011;43656;57.746;11.780;2023-08-21T00:51:09;22.55;;;6.85;;
57826;SDS011;43656;57.746;11.780;2023-08-21T00:53:36;31.38;;;7.07;;
57826;SDS011;43656;57.746;11.780;2023-08-21T00:56:01;31.13;;;7.10;;
57826;SDS011;43656;57.746;11.780;2023-08-21T00:58:27;27.08;;;7.03;;
57826;SDS011;43656;57.746;11.780;2023-08-21T01:00:53;28.08;;;7.38;;
57826;SDS011;43656;57.746;11.780;2023-08-21T01:03:19;31.35;;;8.18;;
57826;SDS011;43656;57.746;11.780;2023-08-21T01:05:44;25.20;;;7.75;;
57826;SDS011;43656;57.746;11.780;2023-08-21T01:08:11;31.90;;;7.07;;
57826;SDS011;43656;57.746;11.780;2023-08-21T01:10:53;32.30;;;7.40;;
57826;SDS011;43656;57.746;11.780;2023-08-21T01:15:54;30.08;;;6.90;;
57826;SDS011;43656;57.746;11.780;2023-08-21T01:18:22;30.60;;;7.43;;
57826;SDS011;43656;57.746;11.780;2023-08-21T01:20:49;25.40;;;6.95;;
57826;SDS011;43656;57.746;11.780;2023-08-21T01:26:03;28.90;;;6.90;;
57826;SDS011;43656;57.746;11.780;2023-08-21T01:28:30;26.27;;;6.40;;
57826;SDS011;43656;57.746;11.780;2023-08-21T01:31:03;29.13;;;6.60;;
57826;SDS011;43656;57.746;11.780;2023-08-21T01:33:35;25.98;;;6.18;;
57826;SDS011;43656;57.746;11.780;2023-08-21T01:36:07;22.92;;;6.20;;
57826;SDS011;43656;57.746;11.780;2023-08-21T01:38:33;27.48;;;6.50;;
57826;SDS011;43656;57.746;11.780;2023-08-21T01:41:00;29.48;;;5.65;;
57826;SDS011;43656;57.746;11.780;2023-08-21T01:43:25;31.90;;;6.35;;
57826;SDS011;43656;57.746;11.780;2023-08-21T01:45:51;21.83;;;5.43;;
57826;SDS011;43656;57.746;11.780;2023-08-21T01:48:16;25.92;;;5.45;;
57826;SDS011;43656;57.746;11.780;2023-08-21T01:50:42;24.55;;;5.30;;
57826;SDS011;43656;57.746;11.780;2023-08-21T01:53:07;19.05;;;5.10;;
57826;SDS011;43656;57.746;11.780;2023-08-21T01:55:33;27.75;;;5.65;;
57826;SDS011;43656;57.746;11.780;2023-08-21T01:57:58;24.38;;;5.35;;
57826;SDS011;43656;57.746;11.780;2023-08-21T02:00:23;28.05;;;5.43;;
57826;SDS011;43656;57.746;11.780;2023-08-21T02:02:49;27.92;;;5.53;;
57826;SDS011;43656;57.746;11.780;2023-08-21T02:05:14;31.05;;;6.00;;
57826;SDS011;43656;57.746;11.780;2023-08-21T02:07:40;28.00;;;6.13;;
57826;SDS011;43656;57.746;11.780;2023-08-21T02:10:05;31.70;;;6.38;;
57826;SDS011;43656;57.746;11.780;2023-08-21T02:12:31;27.77;;;5.57;;
57826;SDS011;43656;57.746;11.780;2023-08-21T02:14:57;28.15;;;5.63;;
57826;SDS011;43656;57.746;11.780;2023-08-21T02:17:22;22.42;;;4.93;;
57826;SDS011;43656;57.746;11.780;2023-08-21T02:19:50;25.23;;;4.70;;
57826;SDS011;43656;57.746;11.780;2023-08-21T02:22:16;29.40;;;5.43;;
57826;SDS011;43656;57.746;11.780;2023-08-21T02:24:41;20.67;;;4.78;;
57826;SDS011;43656;57.746;11.780;2023-08-21T02:27:06;20.80;;;4.82;;
57826;SDS011;43656;57.746;11.780;2023-08-21T02:29:32;27.05;;;5.80;;
57826;SDS011;43656;57.746;11.780;2023-08-21T02:31:57;20.67;;;4.78;;
57826;SDS011;43656;57.746;11.780;2023-08-21T02:34:23;27.38;;;5.10;;
57826;SDS011;43656;57.746;11.780;2023-08-21T02:36:49;26.95;;;5.68;;
57826;SDS011;43656;57.746;11.780;2023-08-21T02:39:14;28.50;;;5.50;;
57826;SDS011;43656;57.746;11.780;2023-08-21T02:41:40;21.80;;;5.03;;
57826;SDS011;43656;57.746;11.780;2023-08-21T02:44:05;20.13;;;4.43;;
57826;SDS011;43656;57.746;11.780;2023-08-21T02:46:30;20.17;;;4.40;;
57826;SDS011;43656;57.746;11.780;2023-08-21T02:48:58;18.52;;;4.15;;
57826;SDS011;43656;57.746;11.780;2023-08-21T02:51:23;17.73;;;4.57;;
57826;SDS011;43656;57.746;11.780;2023-08-21T02:53:49;20.60;;;4.65;;
57826;SDS011;43656;57.746;11.780;2023-08-21T02:56:14;17.23;;;4.30;;
57826;SDS011;43656;57.746;11.780;2023-08-21T02:58:39;19.00;;;4.35;;
57826;SDS011;43656;57.746;11.780;2023-08-21T03:01:05;16.42;;;3.85;;
57826;SDS011;43656;57.746;11.780;2023-08-21T03:03:30;18.80;;;3.70;;
57826;SDS011;43656;57.746;11.780;2023-08-21T03:05:58;18.48;;;4.10;;
57826;SDS011;43656;57.746;11.780;2023-08-21T03:08:24;21.90;;;4.10;;
57826;SDS011;43656;57.746;11.780;2023-08-21T03:10:49;17.02;;;4.38;;
57826;SDS011;43656;57.746;11.780;2023-08-21T03:13:14;14.52;;;4.10;;
57826;SDS011;43656;57.746;11.780;2023-08-21T03:15:40;15.50;;;3.47;;
57826;SDS011;43656;57.746;11.780;2023-08-21T03:18:05;20.02;;;4.07;;
57826;SDS011;43656;57.746;11.780;2023-08-21T03:20:30;13.63;;;3.10;;
57826;SDS011;43656;57.746;11.780;2023-08-21T03:22:56;18.42;;;3.60;;
57826;SDS011;43656;57.746;11.780;2023-08-21T03:25:21;14.73;;;3.60;;
57826;SDS011;43656;57.746;11.780;2023-08-21T03:27:47;20.38;;;3.70;;
57826;SDS011;43656;57.746;11.780;2023-08-21T03:30:14;15.25;;;3.38;;
57826;SDS011;43656;57.746;11.780;2023-08-21T03:32:40;22.50;;;3.63;;
57826;SDS011;43656;57.746;11.780;2023-08-21T03:35:06;16.02;;;3.15;;
57826;SDS011;43656;57.746;11.780;2023-08-21T03:37:31;18.40;;;3.42;;
57826;SDS011;43656;57.746;11.780;2023-08-21T03:39:57;15.50;;;3.17;;
57826;SDS011;43656;57.746;11.780;2023-08-21T03:42:22;10.93;;;3.33;;
57826;SDS011;43656;57.746;11.780;2023-08-21T03:44:48;15.20;;;3.20;;
57826;SDS011;43656;57.746;11.780;2023-08-21T03:47:15;17.17;;;3.35;;
57826;SDS011;43656;57.746;11.780;2023-08-21T03:49:41;11.90;;;3.25;;
57826;SDS011;43656;57.746;11.780;2023-08-21T03:52:06;18.60;;;3.22;;
57826;SDS011;43656;57.746;11.780;2023-08-21T03:54:32;13.95;;;3.22;;
57826;SDS011;43656;57.746;11.780;2023-08-21T03:56:57;11.80;;;3.05;;
57826;SDS011;43656;57.746;11.780;2023-08-21T03:59:23;12.68;;;3.08;;
57826;SDS011;43656;57.746;11.780;2023-08-21T04:01:52;11.23;;;2.75;;
57826;SDS011;43656;57.746;11.780;2023-08-21T04:04:18;18.75;;;3.40;;
57826;SDS011;43656;57.746;11.780;2023-08-21T04:06:43;15.95;;;3.63;;
57826;SDS011;43656;57.746;11.780;2023-08-21T04:09:08;13.98;;;3.33;;
57826;SDS011;43656;57.746;11.780;2023-08-21T04:11:34;12.70;;;2.78;;
57826;SDS011;43656;57.746;11.780;2023-08-21T04:14:00;11.90;;;2.50;;
57826;SDS011;43656;57.746;11.780;2023-08-21T04:16:27;13.25;;;2.97;;
57826;SDS011;43656;57.746;11.780;2023-08-21T04:18:53;12.35;;;2.47;;
57826;SDS011;43656;57.746;11.780;2023-08-21T04:21:19;14.57;;;2.40;;
57826;SDS011;43656;57.746;11.780;2023-08-21T04:23:44;11.82;;;2.90;;
57826;SDS011;43656;57.746;11.780;2023-08-21T04:26:11;12.80;;;2.50;;
57826;SDS011;43656;57.746;11.780;2023-08-21T04:28:36;11.68;;;2.60;;
57826;SDS011;43656;57.746;11.780;2023-08-21T04:31:05;14.27;;;2.63;;
57826;SDS011;43656;57.746;11.780;2023-08-21T04:33:31;12.20;;;2.50;;
57826;SDS011;43656;57.746;11.780;2023-08-21T04:35:56;9.63;;;2.08;;
57826;SDS011;43656;57.746;11.780;2023-08-21T04:38:22;15.93;;;3.10;;
57826;SDS011;43656;57.746;11.780;2023-08-21T04:40:48;12.32;;;2.60;;
57826;SDS011;43656;57.746;11.780;2023-08-21T04:43:13;9.63;;;2.47;;
57826;SDS011;43656;57.746;11.780;2023-08-21T04:45:45;11.80;;;2.50;;
57826;SDS011;43656;57.746;11.780;2023-08-21T04:48:15;9.75;;;2.00;;
57826;SDS011;43656;57.746;11.780;2023-08-21T04:50:40;9.55;;;2.47;;
57826;SDS011;43656;57.746;11.780;2023-08-21T04:53:06;9.52;;;1.90;;
57826;SDS011;43656;57.746;11.780;2023-08-21T04:55:31;12.10;;;1.70;;
57826;SDS011;43656;57.746;11.780;2023-08-21T04:57:57;12.32;;;1.92;;
57826;SDS011;43656;57.746;11.780;2023-08-21T05:00:22;8.40;;;2.03;;
57826;SDS011;43656;57.746;11.780;2023-08-21T05:02:48;8.30;;;2.08;;
57826;SDS011;43656;57.746;11.780;2023-08-21T05:05:13;10.00;;;1.95;;
57826;SDS011;43656;57.746;11.780;2023-08-21T05:07:39;8.30;;;1.80;;
57826;SDS011;43656;57.746;11.780;2023-08-21T05:10:04;9.70;;;1.88;;
57826;SDS011;43656;57.746;11.780;2023-08-21T05:12:30;7.25;;;1.73;;
57826;SDS011;43656;57.746;11.780;2023-08-21T05:14:56;10.70;;;2.55;;
57826;SDS011;43656;57.746;11.780;2023-08-21T05:17:21;8.98;;;1.80;;
57826;SDS011;43656;57.746;11.780;2023-08-21T05:19:46;8.52;;;2.00;;
57826;SDS011;43656;57.746;11.780;2023-08-21T05:22:12;12.43;;;2.30;;
57826;SDS011;43656;57.746;11.780;2023-08-21T05:24:37;9.02;;;2.05;;
57826;SDS011;43656;57.746;11.780;2023-08-21T05:27:03;9.43;;;2.15;;
57826;SDS011;43656;57.746;11.780;2023-08-21T05:29:29;12.23;;;2.53;;
57826;SDS011;43656;57.746;11.780;2023-08-21T05:31:55;9.43;;;2.10;;
57826;SDS011;43656;57.746;11.780;2023-08-21T05:34:20;10.35;;;2.65;;
57826;SDS011;43656;57.746;11.780;2023-08-21T05:36:45;11.45;;;3.03;;
57826;SDS011;43656;57.746;11.780;2023-08-21T05:39:11;14.25;;;2.40;;
57826;SDS011;43656;57.746;11.780;2023-08-21T05:41:36;6.95;;;2.00;;
57826;SDS011;43656;57.746;11.780;2023-08-21T05:44:02;11.23;;;2.28;;
57826;SDS011;43656;57.746;11.780;2023-08-21T05:46:27;9.02;;;2.08;;
57826;SDS011;43656;57.746;11.780;2023-08-21T05:48:53;12.55;;;2.40;;
57826;SDS011;43656;57.746;11.780;2023-08-21T05:51:18;9.00;;;2.05;;
57826;SDS011;43656;57.746;11.780;2023-08-21T05:53:43;7.50;;;2.10;;
57826;SDS011;43656;57.746;11.780;2023-08-21T05:56:09;10.65;;;2.08;;
57826;SDS011;43656;57.746;11.780;2023-08-21T05:58:34;11.07;;;2.33;;
57826;SDS011;43656;57.746;11.780;2023-08-21T06:01:00;8.07;;;1.90;;
57826;SDS011;43656;57.746;11.780;2023-08-21T06:03:25;11.85;;;2.35;;
57826;SDS011;43656;57.746;11.780;2023-08-21T06:05:51;10.18;;;2.13;;
57826;SDS011;43656;57.746;11.780;2023-08-21T06:08:16;10.75;;;2.40;;
57826;SDS011;43656;57.746;11.780;2023-08-21T06:10:43;10.10;;;2.15;;
57826;SDS011;43656;57.746;11.780;2023-08-21T06:13:08;11.40;;;2.22;;
57826;SDS011;43656;57.746;11.780;2023-08-21T06:15:34;9.95;;;2.20;;
57826;SDS011;43656;57.746;11.780;2023-08-21T06:17:59;8.45;;;2.25;;
57826;SDS011;43656;57.746;11.780;2023-08-21T06:20:25;7.90;;;1.90;;
57826;SDS011;43656;57.746;11.780;2023-08-21T06:22:51;9.85;;;2.10;;
57826;SDS011;43656;57.746;11.780;2023-08-21T06:25:16;13.13;;;2.05;;
57826;SDS011;43656;57.746;11.780;2023-08-21T06:27:44;10.32;;;2.38;;
57826;SDS011;43656;57.746;11.780;2023-08-21T06:30:10;8.05;;;1.95;;
57826;SDS011;43656;57.746;11.780;2023-08-21T06:32:35;10.70;;;2.25;;
57826;SDS011;43656;57.746;11.780;2023-08-21T06:35:01;14.23;;;2.25;;
57826;SDS011;43656;57.746;11.780;2023-08-21T06:37:26;11.82;;;2.60;;
57826;SDS011;43656;57.746;11.780;2023-08-21T06:39:52;12.80;;;2.20;;
57826;SDS011;43656;57.746;11.780;2023-08-21T06:42:17;8.43;;;2.00;;
57826;SDS011;43656;57.746;11.780;2023-08-21T06:44:43;7.05;;;1.65;;
57826;SDS011;43656;57.746;11.780;2023-08-21T06:47:08;11.48;;;2.20;;
57826;SDS011;43656;57.746;11.780;2023-08-21T06:49:33;11.40;;;2.47;;
57826;SDS011;43656;57.746;11.780;2023-08-21T06:51:59;10.55;;;2.10;;
57826;SDS011;43656;57.746;11.780;2023-08-21T06:54:24;7.68;;;2.10;;
57826;SDS011;43656;57.746;11.780;2023-08-21T06:56:50;8.43;;;1.92;;
57826;SDS011;43656;57.746;11.780;2023-08-21T06:59:15;8.23;;;1.98;;
57826;SDS011;43656;57.746;11.780;2023-08-21T07:01:41;10.70;;;2.03;;
57826;SDS011;43656;57.746;11.780;2023-08-21T07:04:06;6.45;;;1.92;;
57826;SDS011;43656;57.746;11.780;2023-08-21T07:06:31;10.90;;;2.00;;
57826;SDS011;43656;57.746;11.780;2023-08-21T07:08:57;11.32;;;1.70;;
57826;SDS011;43656;57.746;11.780;2023-08-21T07:11:23;9.40;;;1.88;;
57826;SDS011;43656;57.746;11.780;2023-08-21T07:13:48;9.15;;;1.92;;
57826;SDS011;43656;57.746;11.780;2023-08-21T07:16:14;15.30;;;2.03;;
57826;SDS011;43656;57.746;11.780;2023-08-21T07:18:39;7.75;;;1.80;;
57826;SDS011;43656;57.746;11.780;2023-08-21T07:21:05;10.27;;;2.25;;
57826;SDS011;43656;57.746;11.780;2023-08-21T07:23:30;7.28;;;1.70;;
57826;SDS011;43656;57.746;11.780;2023-08-21T07:25:57;10.07;;;2.05;;
57826;SDS011;43656;57.746;11.780;2023-08-21T07:28:23;8.43;;;1.65;;
57826;SDS011;43656;57.746;11.780;2023-08-21T07:30:54;9.95;;;2.50;;
57826;SDS011;43656;57.746;11.780;2023-08-21T07:33:21;8.75;;;2.00;;
57826;SDS011;43656;57.746;11.780;2023-08-21T07:35:47;9.95;;;2.10;;
57826;SDS011;43656;57.746;11.780;2023-08-21T07:38:12;10.10;;;1.90;;
57826;SDS011;43656;57.746;11.780;2023-08-21T07:40:37;7.60;;;1.70;;
57826;SDS011;43656;57.746;11.780;2023-08-21T07:43:03;11.15;;;1.70;;
57826;SDS011;43656;57.746;11.780;2023-08-21T07:45:28;11.85;;;2.22;;
57826;SDS011;43656;57.746;11.780;2023-08-21T07:47:53;7.57;;;1.80;;
57826;SDS011;43656;57.746;11.780;2023-08-21T07:50:19;9.23;;;2.00;;
57826;SDS011;43656;57.746;11.780;2023-08-21T07:52:44;8.05;;;1.77;;
57826;SDS011;43656;57.746;11.780;2023-08-21T07:55:10;9.55;;;1.80;;
57826;SDS011;43656;57.746;11.780;2023-08-21T07:57:36;11.63;;;2.13;;
57826;SDS011;43656;57.746;11.780;2023-08-21T08:00:02;8.98;;;1.75;;
57826;SDS011;43656;57.746;11.780;2023-08-21T08:02:27;9.77;;;1.92;;
57826;SDS011;43656;57.746;11.780;2023-08-21T08:04:53;8.43;;;2.13;;
57826;SDS011;43656;57.746;11.780;2023-08-21T08:07:19;7.28;;;2.03;;
57826;SDS011;43656;57.746;11.780;2023-08-21T08:09:45;6.90;;;1.77;;
57826;SDS011;43656;57.746;11.780;2023-08-21T08:12:12;7.30;;;1.70;;
57826;SDS011;43656;57.746;11.780;2023-08-21T08:14:37;8.40;;;1.92;;
57826;SDS011;43656;57.746;11.780;2023-08-21T08:17:03;14.10;;;2.85;;
57826;SDS011;43656;57.746;11.780;2023-08-21T08:19:28;8.77;;;1.90;;
57826;SDS011;43656;57.746;11.780;2023-08-21T08:21:54;11.55;;;2.10;;
57826;SDS011;43656;57.746;11.780;2023-08-21T08:24:19;5.63;;;1.70;;
57826;SDS011;43656;57.746;11.780;2023-08-21T08:26:45;8.88;;;2.00;;
57826;SDS011;43656;57.746;11.780;2023-08-21T08:29:11;8.93;;;1.83;;
57826;SDS011;43656;57.746;11.780;2023-08-21T08:31:37;4.63;;;1.40;;
57826;SDS011;43656;57.746;11.780;2023-08-21T08:34:04;6.05;;;1.60;;
57826;SDS011;43656;57.746;11.780;2023-08-21T08:36:29;8.10;;;2.15;;
57826;SDS011;43656;57.746;11.780;2023-08-21T08:38:55;7.80;;;1.45;;
57826;SDS011;43656;57.746;11.780;2023-08-21T08:41:55;5.22;;;1.45;;
57826;SDS011;43656;57.746;11.780;2023-08-21T08:44:19;7.72;;;2.15;;
57826;SDS011;43656;57.746;11.780;2023-08-21T08:46:44;7.93;;;1.80;;
57826;SDS011;43656;57.746;11.780;2023-08-21T08:49:10;6.97;;;1.60;;
57826;SDS011;43656;57.746;11.780;2023-08-21T08:51:36;7.15;;;1.63;;
57826;SDS011;43656;57.746;11.780;2023-08-21T08:54:04;5.82;;;1.65;;
57826;SDS011;43656;57.746;11.780;2023-08-21T08:56:31;5.90;;;1.60;;
57826;SDS011;43656;57.746;11.780;2023-08-21T08:58:56;10.52;;;2.28;;
57826;SDS011;43656;57.746;11.780;2023-08-21T09:01:22;7.75;;;1.65;;
57826;SDS011;43656;57.746;11.780;2023-08-21T09:03:47;8.35;;;1.90;;
57826;SDS011;43656;57.746;11.780;2023-08-21T09:06:16;10.30;;;2.13;;
57826;SDS011;43656;57.746;11.780;2023-08-21T09:08:54;7.32;;;1.50;;
57826;SDS011;43656;57.746;11.780;2023-08-21T09:11:20;6.68;;;1.80;;
57826;SDS011;43656;57.746;11.780;2023-08-21T09:13:48;6.80;;;1.70;;
57826;SDS011;43656;57.746;11.780;2023-08-21T09:16:15;7.43;;;1.50;;
57826;SDS011;43656;57.746;11.780;2023-08-21T09:18:48;9.55;;;2.08;;
57826;SDS011;43656;57.746;11.780;2023-08-21T09:21:15;11.35;;;2.03;;
57826;SDS011;43656;57.746;11.780;2023-08-21T09:23:44;11.60;;;2.00;;
57826;SDS011;43656;57.746;11.780;2023-08-21T09:26:22;7.60;;;2.13;;
57826;SDS011;43656;57.746;11.780;2023-08-21T09:28:49;7.07;;;1.50;;
57826;SDS011;43656;57.746;11.780;2023-08-21T09:31:16;7.93;;;1.95;;
57826;SDS011;43656;57.746;11.780;2023-08-21T09:33:54;7.03;;;2.22;;
57826;SDS011;43656;57.746;11.780;2023-08-21T09:36:22;7.05;;;1.60;;
57826;SDS011;43656;57.746;11.780;2023-08-21T09:38:47;7.18;;;1.65;;
57826;SDS011;43656;57.746;11.780;2023-08-21T09:41:13;7.45;;;2.20;;
57826;SDS011;43656;57.746;11.780;2023-08-21T09:43:42;10.07;;;1.88;;
57826;SDS011;43656;57.746;11.780;2023-08-21T09:46:13;7.22;;;1.95;;
57826;SDS011;43656;57.746;11.780;2023-08-21T09:48:41;8.75;;;1.70;;
57826;SDS011;43656;57.746;11.780;2023-08-21T09:51:08;10.35;;;1.70;;
57826;SDS011;43656;57.746;11.780;2023-08-21T09:53:35;14.77;;;2.22;;
57826;SDS011;43656;57.746;11.780;2023-08-21T09:56:01;7.95;;;2.22;;
57826;SDS011;43656;57.746;11.780;2023-08-21T09:58:29;6.97;;;2.10;;
57826;SDS011;43656;57.746;11.780;2023-08-21T10:00:58;12.65;;;2.30;;
57826;SDS011;43656;57.746;11.780;2023-08-21T10:03:25;6.78;;;1.75;;
57826;SDS011;43656;57.746;11.780;2023-08-21T10:05:51;11.93;;;1.98;;
57826;SDS011;43656;57.746;11.780;2023-08-21T10:08:24;8.48;;;2.00;;
57826;SDS011;43656;57.746;11.780;2023-08-21T10:10:51;7.70;;;2.10;;
57826;SDS011;43656;57.746;11.780;2023-08-21T10:13:16;10.07;;;2.28;;
57826;SDS011;43656;57.746;11.780;2023-08-21T10:15:43;8.00;;;2.03;;
57826;SDS011;43656;57.746;11.780;2023-08-21T10:20:45;7.40;;;1.90;;
57826;SDS011;43656;57.746;11.780;2023-08-21T10:23:10;8.35;;;1.98;;
57826;SDS011;43656;57.746;11.780;2023-08-21T10:25:49;6.93;;;1.58;;
57826;SDS011;43656;57.746;11.780;2023-08-21T10:28:19;10.75;;;2.22;;
57826;SDS011;43656;57.746;11.780;2023-08-21T10:30:45;8.93;;;2.30;;
57826;SDS011;43656;57.746;11.780;2023-08-21T10:33:10;8.85;;;1.77;;
57826;SDS011;43656;57.746;11.780;2023-08-21T10:35:36;11.43;;;2.13;;
57826;SDS011;43656;57.746;11.780;2023-08-21T10:38:05;10.07;;;2.15;;
57826;SDS011;43656;57.746;11.780;2023-08-21T10:43:44;8.75;;;1.58;;
57826;SDS011;43656;57.746;11.780;2023-08-21T10:46:10;10.32;;;2.05;;
57826;SDS011;43656;57.746;11.780;2023-08-21T10:48:37;9.93;;;1.95;;
57826;SDS011;43656;57.746;11.780;2023-08-21T10:51:04;8.95;;;1.77;;
57826;SDS011;43656;57.746;11.780;2023-08-21T10:53:31;8.73;;;1.73;;
57826;SDS011;43656;57.746;11.780;2023-08-21T10:56:00;12.05;;;2.00;;
57826;SDS011;43656;57.746;11.780;2023-08-21T10:58:27;9.07;;;1.92;;
57826;SDS011;43656;57.746;11.780;2023-08-21T11:00:57;9.80;;;2.10;;
57826;SDS011;43656;57.746;11.780;2023-08-21T11:03:25;10.40;;;2.25;;
57826;SDS011;43656;57.746;11.780;2023-08-21T11:06:07;12.02;;;1.75;;
57826;SDS011;43656;57.746;11.780;2023-08-21T11:08:34;8.50;;;2.40;;
57826;SDS011;43656;57.746;11.780;2023-08-21T11:11:01;13.52;;;2.25;;
57826;SDS011;43656;57.746;11.780;2023-08-21T11:13:27;9.98;;;2.30;;
57826;SDS011;43656;57.746;11.780;2023-08-21T11:18:37;8.32;;;2.33;;
57826;SDS011;43656;57.746;11.780;2023-08-21T11:21:07;9.80;;;2.25;;
57826;SDS011;43656;57.746;11.780;2023-08-21T11:23:37;7.20;;;1.85;;
57826;SDS011;43656;57.746;11.780;2023-08-21T11:26:04;5.45;;;1.75;;
57826;SDS011;43656;57.746;11.780;2023-08-21T11:28:31;11.82;;;3.15;;
57826;SDS011;43656;57.746;11.780;2023-08-21T11:30:57;8.05;;;1.80;;
57826;SDS011;43656;57.746;11.780;2023-08-21T11:33:23;10.85;;;2.28;;
57826;SDS011;43656;57.746;11.780;2023-08-21T11:35:50;10.02;;;2.25;;
57826;SDS011;43656;57.746;11.780;2023-08-21T11:38:19;14.38;;;2.78;;
57826;SDS011;43656;57.746;11.780;2023-08-21T11:43:21;7.47;;;2.10;;
57826;SDS011;43656;57.746;11.780;2023-08-21T11:45:47;7.13;;;1.98;;
57826;SDS011;43656;57.746;11.780;2023-08-21T11:48:13;8.25;;;2.30;;
57826;SDS011;43656;57.746;11.780;2023-08-21T11:50:39;7.97;;;2.25;;
57826;SDS011;43656;57.746;11.780;2023-08-21T11:53:06;14.05;;;2.47;;
57826;SDS011;43656;57.746;11.780;2023-08-21T11:55:32;8.88;;;2.05;;
57826;SDS011;43656;57.746;11.780;2023-08-21T11:57:59;7.60;;;2.05;;
57826;SDS011;43656;57.746;11.780;2023-08-21T12:00:27;10.52;;;2.70;;
57826;SDS011;43656;57.746;11.780;2023-08-21T12:02:55;10.98;;;2.47;;
57826;SDS011;43656;57.746;11.780;2023-08-21T12:05:21;9.20;;;1.92;;
57826;SDS011;43656;57.746;11.780;2023-08-21T12:07:47;10.48;;;2.17;;
57826;SDS011;43656;57.746;11.780;2023-08-21T12:10:12;11.88;;;2.20;;
57826;SDS011;43656;57.746;11.780;2023-08-21T12:12:38;13.05;;;2.10;;
57826;SDS011;43656;57.746;11.780;2023-08-21T12:15:03;9.85;;;2.67;;
57826;SDS011;43656;57.746;11.780;2023-08-21T12:17:29;13.07;;;2.25;;
57826;SDS011;43656;57.746;11.780;2023-08-21T12:19:54;10.45;;;2.35;;
57826;SDS011;43656;57.746;11.780;2023-08-21T12:22:20;9.10;;;1.98;;
57826;SDS011;43656;57.746;11.780;2023-08-21T12:24:45;9.48;;;2.10;;
57826;SDS011;43656;57.746;11.780;2023-08-21T12:27:11;8.35;;;2.30;;
57826;SDS011;43656;57.746;11.780;2023-08-21T12:29:36;11.05;;;2.40;;
57826;SDS011;43656;57.746;11.780;2023-08-21T12:32:01;11.15;;;2.90;;
57826;SDS011;43656;57.746;11.780;2023-08-21T12:34:30;9.05;;;2.10;;
57826;SDS011;43656;57.746;11.780;2023-08-21T12:36:55;9.98;;;2.47;;
57826;SDS011;43656;57.746;11.780;2023-08-21T12:39:21;8.15;;;2.30;;
57826;SDS011;43656;57.746;11.780;2023-08-21T12:41:47;6.07;;;1.77;;
57826;SDS011;43656;57.746;11.780;2023-08-21T12:44:13;12.30;;;2.45;;
57826;SDS011;43656;57.746;11.780;2023-08-21T12:46:39;8.18;;;1.83;;
57826;SDS011;43656;57.746;11.780;2023-08-21T12:49:04;9.55;;;1.95;;
57826;SDS011;43656;57.746;11.780;2023-08-21T12:51:30;8.30;;;2.10;;
57826;SDS011;43656;57.746;11.780;2023-08-21T12:53:55;9.00;;;2.33;;
57826;SDS011;43656;57.746;11.780;2023-08-21T12:56:21;8.98;;;2.10;;
57826;SDS011;43656;57.746;11.780;2023-08-21T12:58:47;9.07;;;2.28;;
57826;SDS011;43656;57.746;11.780;2023-08-21T13:01:13;9.80;;;2.15;;
57826;SDS011;43656;57.746;11.780;2023-08-21T13:03:39;9.35;;;2.75;;
57826;SDS011;43656;57.746;11.780;2023-08-21T13:06:09;11.73;;;2.22;;
57826;SDS011;43656;57.746;11.780;2023-08-21T13:08:34;9.35;;;2.13;;
57826;SDS011;43656;57.746;11.780;2023-08-21T13:10:59;7.25;;;1.85;;
57826;SDS011;43656;57.746;11.780;2023-08-21T13:13:25;11.60;;;2.25;;
57826;SDS011;43656;57.746;11.780;2023-08-21T13:15:51;12.20;;;2.90;;
57826;SDS011;43656;57.746;11.780;2023-08-21T13:18:18;8.57;;;2.35;;
57826;SDS011;43656;57.746;11.780;2023-08-21T13:20:44;12.05;;;2.78;;
57826;SDS011;43656;57.746;11.780;2023-08-21T13:23:09;9.65;;;2.70;;
57826;SDS011;43656;57.746;11.780;2023-08-21T13:25:34;7.75;;;2.28;;
57826;SDS011;43656;57.746;11.780;2023-08-21T13:28:00;11.23;;;2.30;;
57826;SDS011;43656;57.746;11.780;2023-08-21T13:30:26;8.95;;;2.22;;
57826;SDS011;43656;57.746;11.780;2023-08-21T13:32:52;7.43;;;2.10;;
57826;SDS011;43656;57.746;11.780;2023-08-21T13:35:17;10.27;;;2.70;;
57826;SDS011;43656;57.746;11.780;2023-08-21T13:37:44;8.75;;;2.13;;
57826;SDS011;43656;57.746;11.780;2023-08-21T13:40:10;7.10;;;2.03;;
57826;SDS011;43656;57.746;11.780;2023-08-21T13:42:39;7.43;;;2.00;;
57826;SDS011;43656;57.746;11.780;2023-08-21T13:47:37;9.73;;;2.47;;
57826;SDS011;43656;57.746;11.780;2023-08-21T13:50:06;10.82;;;2.60;;
57826;SDS011;43656;57.746;11.780;2023-08-21T13:52:33;6.65;;;1.92;;
57826;SDS011;43656;57.746;11.780;2023-08-21T13:54:59;11.68;;;2.50;;
57826;SDS011;43656;57.746;11.780;2023-08-21T13:57:25;15.60;;;3.03;;
57826;SDS011;43656;57.746;11.780;2023-08-21T13:59:51;11.30;;;2.55;;
57826;SDS011;43656;57.746;11.780;2023-08-21T14:02:16;13.10;;;2.58;;
57826;SDS011;43656;57.746;11.780;2023-08-21T14:04:43;9.65;;;2.55;;
57826;SDS011;43656;57.746;11.780;2023-08-21T14:07:09;10.88;;;2.38;;
57826;SDS011;43656;57.746;11.780;2023-08-21T14:09:34;13.75;;;3.20;;
57826;SDS011;43656;57.746;11.780;2023-08-21T14:12:01;10.13;;;2.60;;
57826;SDS011;43656;57.746;11.780;2023-08-21T14:14:27;9.63;;;2.55;;
57826;SDS011;43656;57.746;11.780;2023-08-21T14:16:52;13.80;;;3.25;;
57826;SDS011;43656;57.746;11.780;2023-08-21T14:19:18;12.52;;;2.78;;
57826;SDS011;43656;57.746;11.780;2023-08-21T14:21:43;12.20;;;2.97;;
57826;SDS011;43656;57.746;11.780;2023-08-21T14:24:08;12.55;;;2.65;;
57826;SDS011;43656;57.746;11.780;2023-08-21T14:26:34;14.75;;;2.85;;
57826;SDS011;43656;57.746;11.780;2023-08-21T14:28:59;13.02;;;2.97;;
57826;SDS011;43656;57.746;11.780;2023-08-21T14:31:24;11.63;;;2.88;;
57826;SDS011;43656;57.746;11.780;2023-08-21T14:33:50;11.45;;;2.58;;
57826;SDS011;43656;57.746;11.780;2023-08-21T14:36:15;11.20;;;2.72;;
57826;SDS011;43656;57.746;11.780;2023-08-21T14:38:41;11.90;;;3.00;;